sensor_id;sensor_type;location;lat;lon;timestamp;temperature;humidity
15991;DHT22;8100;50.994;4.538;2023-03-21T00:02:35;9.80;1.00
15991;DHT22;8100;50.994;4.538;2023-03-21T00:05:22;9.80;1.00
15991;DHT22;8100;50.994;4.538;2023-03-21T00:08:09;9.80;1.00
15991;DHT22;8100;50.994;4.538;2023-03-21T00:10:57;9.80;1.00
15991;DHT22;8100;50.994;4.538;2023-03-21T00:13:44;9.80;1.00
15991;DHT22;8100;50.994;4.538;2023-03-21T00:16:32;9.80;1.00
15991;DHT22;8100;50.994;4.538;2023-03-21T00:19:22;9.70;1.00
15991;DHT22;8100;50.994;4.538;2023-03-21T00:22:11;9.70;1.00
15991;DHT22;8100;50.994;4.538;2023-03-21T00:24:58;9.70;1.00
15991;DHT22;8100;50.994;4.538;2023-03-21T00:27:45;9.70;1.00
15991;DHT22;8100;50.994;4.538;2023-03-21T00:30:33;9.70;1.00
15991;DHT22;8100;50.994;4.538;2023-03-21T00:33:20;9.70;1.00
15991;DHT22;8100;50.994;4.538;2023-03-21T00:36:10;9.70;1.00
15991;DHT22;8100;50.994;4.538;2023-03-21T00:38:58;9.70;1.00
15991;DHT22;8100;50.994;4.538;2023-03-21T00:41:46;9.70;1.00
15991;DHT22;8100;50.994;4.538;2023-03-21T00:44:35;9.70;1.00
15991;DHT22;8100;50.994;4.538;2023-03-21T00:47:22;9.70;1.00
15991;DHT22;8100;50.994;4.538;2023-03-21T00:50:10;9.70;1.00
15991;DHT22;8100;50.994;4.538;2023-03-21T00:52:59;9.70;1.00
15991;DHT22;8100;50.994;4.538;2023-03-21T00:55:46;9.70;1.00
15991;DHT22;8100;50.994;4.538;2023-03-21T00:58:34;9.70;1.00
15991;DHT22;8100;50.994;4.538;2023-03-21T01:01:21;9.70;1.00
15991;DHT22;8100;50.994;4.538;2023-03-21T01:04:08;9.70;1.00
15991;DHT22;8100;50.994;4.538;2023-03-21T01:06:59;9.60;1.00
15991;DHT22;8100;50.994;4.538;2023-03-21T01:09:47;9.60;1.00
15991;DHT22;8100;50.994;4.538;2023-03-21T01:12:35;9.60;1.00
15991;DHT22;8100;50.994;4.538;2023-03-21T01:15:23;9.60;1.00
15991;DHT22;8100;50.994;4.538;2023-03-21T01:18:10;9.60;1.00
15991;DHT22;8100;50.994;4.538;2023-03-21T01:20:59;9.60;1.00
15991;DHT22;8100;50.994;4.538;2023-03-21T01:23:46;9.60;1.00
15991;DHT22;8100;50.994;4.538;2023-03-21T01:26:35;9.60;1.00
15991;DHT22;8100;50.994;4.538;2023-03-21T01:29:23;9.60;1.00
15991;DHT22;8100;50.994;4.538;2023-03-21T01:32:10;9.60;1.00
15991;DHT22;8100;50.994;4.538;2023-03-21T01:34:57;9.60;1.00
15991;DHT22;8100;50.994;4.538;2023-03-21T01:37:45;9.60;1.00
15991;DHT22;8100;50.994;4.538;2023-03-21T01:40:33;9.60;1.00
15991;DHT22;8100;50.994;4.538;2023-03-21T01:43:27;9.60;1.00
15991;DHT22;8100;50.994;4.538;2023-03-21T01:46:34;9.60;1.00
15991;DHT22;8100;50.994;4.538;2023-03-21T01:49:25;9.60;1.00
15991;DHT22;8100;50.994;4.538;2023-03-21T01:52:15;9.50;1.00
15991;DHT22;8100;50.994;4.538;2023-03-21T01:55:06;9.50;1.00
15991;DHT22;8100;50.994;4.538;2023-03-21T01:57:57;9.60;1.00
15991;DHT22;8100;50.994;4.538;2023-03-21T02:00:46;9.60;1.00
15991;DHT22;8100;50.994;4.538;2023-03-21T02:03:38;9.60;1.00
15991;DHT22;8100;50.994;4.538;2023-03-21T02:06:41;9.60;1.00
15991;DHT22;8100;50.994;4.538;2023-03-21T02:09:32;9.60;1.00
15991;DHT22;8100;50.994;4.538;2023-03-21T02:12:21;9.60;1.00
15991;DHT22;8100;50.994;4.538;2023-03-21T02:15:09;9.60;1.00
15991;DHT22;8100;50.994;4.538;2023-03-21T02:18:02;9.60;1.00
15991;DHT22;8100;50.994;4.538;2023-03-21T02:24:33;9.60;1.00
15991;DHT22;8100;50.994;4.538;2023-03-21T02:27:32;9.60;1.00
15991;DHT22;8100;50.994;4.538;2023-03-21T02:30:39;9.60;1.00
15991;DHT22;8100;50.994;4.538;2023-03-21T02:37:11;9.60;1.00
15991;DHT22;8100;50.994;4.538;2023-03-21T02:40:06;9.60;1.00
15991;DHT22;8100;50.994;4.538;2023-03-21T02:43:02;9.60;1.00
15991;DHT22;8100;50.994;4.538;2023-03-21T02:45:53;9.60;1.00
15991;DHT22;8100;50.994;4.538;2023-03-21T02:48:49;9.60;1.00
15991;DHT22;8100;50.994;4.538;2023-03-21T02:51:39;9.70;1.00
15991;DHT22;8100;50.994;4.538;2023-03-21T02:54:30;9.70;1.00
15991;DHT22;8100;50.994;4.538;2023-03-21T02:57:19;9.70;1.00
15991;DHT22;8100;50.994;4.538;2023-03-21T03:00:08;9.70;1.00
15991;DHT22;8100;50.994;4.538;2023-03-21T03:02:57;9.80;99.90
15991;DHT22;8100;50.994;4.538;2023-03-21T03:05:48;9.80;99.90
15991;DHT22;8100;50.994;4.538;2023-03-21T03:08:41;9.80;99.90
15991;DHT22;8100;50.994;4.538;2023-03-21T03:11:32;9.80;99.90
15991;DHT22;8100;50.994;4.538;2023-03-21T03:14:39;9.80;99.90
15991;DHT22;8100;50.994;4.538;2023-03-21T03:17:42;9.80;99.90
15991;DHT22;8100;50.994;4.538;2023-03-21T03:20:36;9.80;99.90
15991;DHT22;8100;50.994;4.538;2023-03-21T03:23:29;9.70;99.90
15991;DHT22;8100;50.994;4.538;2023-03-21T03:26:24;9.80;99.90
15991;DHT22;8100;50.994;4.538;2023-03-21T03:29:15;9.80;99.90
15991;DHT22;8100;50.994;4.538;2023-03-21T03:32:06;9.80;99.90
15991;DHT22;8100;50.994;4.538;2023-03-21T03:34:55;9.80;99.90
15991;DHT22;8100;50.994;4.538;2023-03-21T03:37:45;9.80;99.90
15991;DHT22;8100;50.994;4.538;2023-03-21T03:40:38;9.70;99.90
15991;DHT22;8100;50.994;4.538;2023-03-21T03:43:33;9.70;99.90
15991;DHT22;8100;50.994;4.538;2023-03-21T03:46:27;9.70;99.90
15991;DHT22;8100;50.994;4.538;2023-03-21T03:49:18;9.70;99.90
15991;DHT22;8100;50.994;4.538;2023-03-21T03:52:10;9.70;99.90
15991;DHT22;8100;50.994;4.538;2023-03-21T03:54:59;9.70;99.90
15991;DHT22;8100;50.994;4.538;2023-03-21T03:57:47;9.70;99.90
15991;DHT22;8100;50.994;4.538;2023-03-21T04:00:36;9.70;99.90
15991;DHT22;8100;50.994;4.538;2023-03-21T04:03:25;9.70;99.90
15991;DHT22;8100;50.994;4.538;2023-03-21T04:06:12;9.70;99.90
15991;DHT22;8100;50.994;4.538;2023-03-21T04:08:59;9.80;99.90
15991;DHT22;8100;50.994;4.538;2023-03-21T04:11:49;9.80;99.90
15991;DHT22;8100;50.994;4.538;2023-03-21T04:14:36;9.80;99.90
15991;DHT22;8100;50.994;4.538;2023-03-21T04:17:24;9.80;99.90
15991;DHT22;8100;50.994;4.538;2023-03-21T04:20:12;9.80;99.90
15991;DHT22;8100;50.994;4.538;2023-03-21T04:23:00;9.90;99.90
15991;DHT22;8100;50.994;4.538;2023-03-21T04:25:47;9.90;99.90
15991;DHT22;8100;50.994;4.538;2023-03-21T04:28:36;9.90;99.90
15991;DHT22;8100;50.994;4.538;2023-03-21T04:31:24;9.90;99.90
15991;DHT22;8100;50.994;4.538;2023-03-21T04:34:15;9.90;99.90
15991;DHT22;8100;50.994;4.538;2023-03-21T04:37:04;10.00;99.90
15991;DHT22;8100;50.994;4.538;2023-03-21T04:39:56;9.90;99.90
15991;DHT22;8100;50.994;4.538;2023-03-21T04:42:43;10.00;99.90
15991;DHT22;8100;50.994;4.538;2023-03-21T04:45:30;10.00;99.90
15991;DHT22;8100;50.994;4.538;2023-03-21T04:48:17;10.00;99.90
15991;DHT22;8100;50.994;4.538;2023-03-21T04:51:05;10.00;99.90
15991;DHT22;8100;50.994;4.538;2023-03-21T04:53:54;10.00;99.90
15991;DHT22;8100;50.994;4.538;2023-03-21T04:56:42;10.10;99.90
15991;DHT22;8100;50.994;4.538;2023-03-21T04:59:29;10.10;99.90
15991;DHT22;8100;50.994;4.538;2023-03-21T05:02:17;10.10;99.90
15991;DHT22;8100;50.994;4.538;2023-03-21T05:05:05;10.10;99.90
15991;DHT22;8100;50.994;4.538;2023-03-21T05:07:55;10.00;99.90
15991;DHT22;8100;50.994;4.538;2023-03-21T05:10:44;10.10;99.90
15991;DHT22;8100;50.994;4.538;2023-03-21T05:13:31;10.10;99.90
15991;DHT22;8100;50.994;4.538;2023-03-21T05:16:18;10.00;99.90
15991;DHT22;8100;50.994;4.538;2023-03-21T05:19:10;10.10;99.90
15991;DHT22;8100;50.994;4.538;2023-03-21T05:21:58;10.00;99.90
15991;DHT22;8100;50.994;4.538;2023-03-21T05:24:49;10.00;99.90
15991;DHT22;8100;50.994;4.538;2023-03-21T05:27:38;9.90;99.90
15991;DHT22;8100;50.994;4.538;2023-03-21T05:30:30;10.00;99.90
15991;DHT22;8100;50.994;4.538;2023-03-21T05:33:17;10.00;99.90
15991;DHT22;8100;50.994;4.538;2023-03-21T05:36:05;9.90;99.90
15991;DHT22;8100;50.994;4.538;2023-03-21T05:38:53;9.90;99.90
15991;DHT22;8100;50.994;4.538;2023-03-21T05:41:40;9.90;99.90
15991;DHT22;8100;50.994;4.538;2023-03-21T05:44:29;9.90;99.90
15991;DHT22;8100;50.994;4.538;2023-03-21T05:47:17;9.90;99.90
15991;DHT22;8100;50.994;4.538;2023-03-21T05:50:05;9.90;99.90
15991;DHT22;8100;50.994;4.538;2023-03-21T05:52:52;9.90;99.90
15991;DHT22;8100;50.994;4.538;2023-03-21T05:55:40;9.90;99.90
15991;DHT22;8100;50.994;4.538;2023-03-21T05:58:27;9.90;99.90
15991;DHT22;8100;50.994;4.538;2023-03-21T06:01:16;10.00;99.90
15991;DHT22;8100;50.994;4.538;2023-03-21T06:04:03;10.00;99.90
15991;DHT22;8100;50.994;4.538;2023-03-21T06:06:51;10.00;99.90
15991;DHT22;8100;50.994;4.538;2023-03-21T06:09:38;10.10;99.90
15991;DHT22;8100;50.994;4.538;2023-03-21T06:12:26;10.20;99.90
15991;DHT22;8100;50.994;4.538;2023-03-21T06:15:13;10.20;99.90
15991;DHT22;8100;50.994;4.538;2023-03-21T06:18:01;10.00;99.90
15991;DHT22;8100;50.994;4.538;2023-03-21T06:20:49;9.90;1.00
15991;DHT22;8100;50.994;4.538;2023-03-21T06:23:36;9.80;1.00
15991;DHT22;8100;50.994;4.538;2023-03-21T06:26:24;9.80;1.00
15991;DHT22;8100;50.994;4.538;2023-03-21T06:29:11;9.80;1.00
15991;DHT22;8100;50.994;4.538;2023-03-21T06:31:58;9.80;1.00
15991;DHT22;8100;50.994;4.538;2023-03-21T06:34:47;9.70;1.00
15991;DHT22;8100;50.994;4.538;2023-03-21T06:37:34;9.70;1.00
15991;DHT22;8100;50.994;4.538;2023-03-21T06:40:21;9.70;1.00
15991;DHT22;8100;50.994;4.538;2023-03-21T06:43:09;9.50;1.00
15991;DHT22;8100;50.994;4.538;2023-03-21T06:45:56;9.50;48.20
15991;DHT22;8100;50.994;4.538;2023-03-21T06:48:43;9.50;29.20
15991;DHT22;8100;50.994;4.538;2023-03-21T06:51:32;9.50;99.90
15991;DHT22;8100;50.994;4.538;2023-03-21T06:54:19;9.40;99.90
15991;DHT22;8100;50.994;4.538;2023-03-21T06:57:07;9.40;99.90
15991;DHT22;8100;50.994;4.538;2023-03-21T06:59:54;9.40;99.90
15991;DHT22;8100;50.994;4.538;2023-03-21T07:02:41;9.60;99.90
15991;DHT22;8100;50.994;4.538;2023-03-21T07:05:28;9.70;99.90
15991;DHT22;8100;50.994;4.538;2023-03-21T07:08:17;9.60;99.90
15991;DHT22;8100;50.994;4.538;2023-03-21T07:11:05;9.60;99.90
15991;DHT22;8100;50.994;4.538;2023-03-21T07:13:52;9.70;99.90
15991;DHT22;8100;50.994;4.538;2023-03-21T07:16:40;9.90;99.90
15991;DHT22;8100;50.994;4.538;2023-03-21T07:19:27;9.60;99.90
15991;DHT22;8100;50.994;4.538;2023-03-21T07:22:14;9.60;99.90
15991;DHT22;8100;50.994;4.538;2023-03-21T07:25:04;10.00;99.90
15991;DHT22;8100;50.994;4.538;2023-03-21T07:27:52;9.70;99.90
15991;DHT22;8100;50.994;4.538;2023-03-21T07:30:40;9.90;99.90
15991;DHT22;8100;50.994;4.538;2023-03-21T07:33:27;10.00;99.90
15991;DHT22;8100;50.994;4.538;2023-03-21T07:36:15;9.90;99.90
15991;DHT22;8100;50.994;4.538;2023-03-21T07:39:02;10.00;99.90
15991;DHT22;8100;50.994;4.538;2023-03-21T07:41:52;9.80;99.90
15991;DHT22;8100;50.994;4.538;2023-03-21T07:44:40;10.00;99.90
15991;DHT22;8100;50.994;4.538;2023-03-21T07:47:27;10.10;99.90
15991;DHT22;8100;50.994;4.538;2023-03-21T07:50:15;10.10;99.90
15991;DHT22;8100;50.994;4.538;2023-03-21T07:53:03;10.30;99.90
15991;DHT22;8100;50.994;4.538;2023-03-21T07:55:50;10.30;99.90
15991;DHT22;8100;50.994;4.538;2023-03-21T07:58:40;10.50;99.90
15991;DHT22;8100;50.994;4.538;2023-03-21T08:01:27;10.40;99.90
15991;DHT22;8100;50.994;4.538;2023-03-21T08:04:14;10.50;23.00
15991;DHT22;8100;50.994;4.538;2023-03-21T08:07:01;10.50;1.00
15991;DHT22;8100;50.994;4.538;2023-03-21T08:09:49;10.40;1.00
15991;DHT22;8100;50.994;4.538;2023-03-21T08:12:36;10.40;1.00
15991;DHT22;8100;50.994;4.538;2023-03-21T08:15:25;10.40;1.00
15991;DHT22;8100;50.994;4.538;2023-03-21T08:18:12;10.30;1.00
15991;DHT22;8100;50.994;4.538;2023-03-21T08:20:59;10.40;1.00
15991;DHT22;8100;50.994;4.538;2023-03-21T08:23:46;10.30;1.00
15991;DHT22;8100;50.994;4.538;2023-03-21T08:26:33;10.30;1.00
15991;DHT22;8100;50.994;4.538;2023-03-21T08:29:21;10.30;1.00
15991;DHT22;8100;50.994;4.538;2023-03-21T08:32:11;10.40;1.00
15991;DHT22;8100;50.994;4.538;2023-03-21T08:34:59;10.40;1.00
15991;DHT22;8100;50.994;4.538;2023-03-21T08:37:47;10.50;99.90
15991;DHT22;8100;50.994;4.538;2023-03-21T08:40:34;10.60;99.90
15991;DHT22;8100;50.994;4.538;2023-03-21T08:43:22;10.60;99.90
15991;DHT22;8100;50.994;4.538;2023-03-21T08:46:09;10.80;99.90
15991;DHT22;8100;50.994;4.538;2023-03-21T08:48:58;10.90;99.90
15991;DHT22;8100;50.994;4.538;2023-03-21T08:51:45;11.00;99.90
15991;DHT22;8100;50.994;4.538;2023-03-21T08:54:32;11.00;99.90
15991;DHT22;8100;50.994;4.538;2023-03-21T08:57:20;11.20;99.90
15991;DHT22;8100;50.994;4.538;2023-03-21T09:00:10;11.30;99.90
15991;DHT22;8100;50.994;4.538;2023-03-21T09:02:59;11.40;99.90
15991;DHT22;8100;50.994;4.538;2023-03-21T09:05:47;11.50;99.90
15991;DHT22;8100;50.994;4.538;2023-03-21T09:08:35;11.50;99.90
15991;DHT22;8100;50.994;4.538;2023-03-21T09:11:22;11.70;99.90
15991;DHT22;8100;50.994;4.538;2023-03-21T09:14:10;11.70;99.90
15991;DHT22;8100;50.994;4.538;2023-03-21T09:16:57;11.80;99.90
15991;DHT22;8100;50.994;4.538;2023-03-21T09:19:45;12.00;99.90
15991;DHT22;8100;50.994;4.538;2023-03-21T09:22:36;12.10;99.90
15991;DHT22;8100;50.994;4.538;2023-03-21T09:25:23;12.20;99.90
15991;DHT22;8100;50.994;4.538;2023-03-21T09:28:14;12.20;99.90
15991;DHT22;8100;50.994;4.538;2023-03-21T09:31:01;12.20;99.90
15991;DHT22;8100;50.994;4.538;2023-03-21T09:33:49;12.20;99.90
15991;DHT22;8100;50.994;4.538;2023-03-21T09:36:37;12.10;99.90
15991;DHT22;8100;50.994;4.538;2023-03-21T09:39:28;12.10;99.90
15991;DHT22;8100;50.994;4.538;2023-03-21T09:42:22;12.10;99.90
15991;DHT22;8100;50.994;4.538;2023-03-21T09:45:17;11.90;99.90
15991;DHT22;8100;50.994;4.538;2023-03-21T09:48:11;11.90;99.90
15991;DHT22;8100;50.994;4.538;2023-03-21T09:51:03;11.90;99.90
15991;DHT22;8100;50.994;4.538;2023-03-21T09:53:53;12.10;99.90
15991;DHT22;8100;50.994;4.538;2023-03-21T09:56:44;12.30;99.90
15991;DHT22;8100;50.994;4.538;2023-03-21T09:59:34;12.30;99.90
15991;DHT22;8100;50.994;4.538;2023-03-21T10:02:39;12.50;99.90
15991;DHT22;8100;50.994;4.538;2023-03-21T10:05:28;12.50;99.90
15991;DHT22;8100;50.994;4.538;2023-03-21T10:08:19;12.60;99.90
15991;DHT22;8100;50.994;4.538;2023-03-21T10:11:12;12.70;99.90
15991;DHT22;8100;50.994;4.538;2023-03-21T10:14:05;12.60;88.40
15991;DHT22;8100;50.994;4.538;2023-03-21T10:16:56;12.60;80.50
15991;DHT22;8100;50.994;4.538;2023-03-21T10:19:47;12.60;75.40
15991;DHT22;8100;50.994;4.538;2023-03-21T10:22:35;12.70;59.20
15991;DHT22;8100;50.994;4.538;2023-03-21T10:25:27;12.60;46.60
15991;DHT22;8100;50.994;4.538;2023-03-21T10:28:18;12.70;42.80
15991;DHT22;8100;50.994;4.538;2023-03-21T10:31:08;12.80;48.80
15991;DHT22;8100;50.994;4.538;2023-03-21T10:34:00;13.10;63.10
15991;DHT22;8100;50.994;4.538;2023-03-21T10:36:48;13.00;35.60
15991;DHT22;8100;50.994;4.538;2023-03-21T10:39:37;13.10;39.60
15991;DHT22;8100;50.994;4.538;2023-03-21T10:42:27;13.10;22.90
15991;DHT22;8100;50.994;4.538;2023-03-21T10:45:17;13.20;8.40
15991;DHT22;8100;50.994;4.538;2023-03-21T10:48:08;13.40;11.90
15991;DHT22;8100;50.994;4.538;2023-03-21T10:50:55;13.30;4.90
15991;DHT22;8100;50.994;4.538;2023-03-21T10:53:45;13.20;1.00
15991;DHT22;8100;50.994;4.538;2023-03-21T10:56:39;13.30;1.00
15991;DHT22;8100;50.994;4.538;2023-03-21T10:59:35;13.40;1.00
15991;DHT22;8100;50.994;4.538;2023-03-21T11:02:27;13.60;5.90
15991;DHT22;8100;50.994;4.538;2023-03-21T11:05:24;13.60;1.00
15991;DHT22;8100;50.994;4.538;2023-03-21T11:08:14;13.60;1.00
15991;DHT22;8100;50.994;4.538;2023-03-21T11:11:04;13.80;1.00
15991;DHT22;8100;50.994;4.538;2023-03-21T11:13:56;14.00;1.00
15991;DHT22;8100;50.994;4.538;2023-03-21T11:16:44;14.10;1.00
15991;DHT22;8100;50.994;4.538;2023-03-21T11:19:34;13.80;1.00
15991;DHT22;8100;50.994;4.538;2023-03-21T11:22:24;13.70;1.00
15991;DHT22;8100;50.994;4.538;2023-03-21T11:25:23;13.80;1.00
15991;DHT22;8100;50.994;4.538;2023-03-21T11:28:14;13.70;1.00
15991;DHT22;8100;50.994;4.538;2023-03-21T11:31:02;13.80;1.00
15991;DHT22;8100;50.994;4.538;2023-03-21T11:33:52;13.60;1.00
15991;DHT22;8100;50.994;4.538;2023-03-21T11:36:40;13.60;1.00
15991;DHT22;8100;50.994;4.538;2023-03-21T11:39:33;13.60;1.00
15991;DHT22;8100;50.994;4.538;2023-03-21T11:42:28;13.80;1.00
15991;DHT22;8100;50.994;4.538;2023-03-21T11:45:17;13.70;1.00
15991;DHT22;8100;50.994;4.538;2023-03-21T11:48:12;13.60;1.00
15991;DHT22;8100;50.994;4.538;2023-03-21T11:51:03;13.60;1.00
15991;DHT22;8100;50.994;4.538;2023-03-21T11:54:03;13.70;1.00
15991;DHT22;8100;50.994;4.538;2023-03-21T11:56:57;13.70;1.00
15991;DHT22;8100;50.994;4.538;2023-03-21T11:59:51;13.60;1.00
15991;DHT22;8100;50.994;4.538;2023-03-21T12:03:02;13.60;1.00
15991;DHT22;8100;50.994;4.538;2023-03-21T12:05:53;13.70;1.00
15991;DHT22;8100;50.994;4.538;2023-03-21T12:08:46;13.90;1.00
15991;DHT22;8100;50.994;4.538;2023-03-21T12:11:43;14.20;1.00
15991;DHT22;8100;50.994;4.538;2023-03-21T12:14:41;14.10;1.00
15991;DHT22;8100;50.994;4.538;2023-03-21T12:17:38;14.60;1.00
15991;DHT22;8100;50.994;4.538;2023-03-21T12:20:40;14.80;1.00
15991;DHT22;8100;50.994;4.538;2023-03-21T12:23:44;14.80;1.00
15991;DHT22;8100;50.994;4.538;2023-03-21T12:26:40;14.50;1.00
15991;DHT22;8100;50.994;4.538;2023-03-21T12:29:48;14.50;1.00
15991;DHT22;8100;50.994;4.538;2023-03-21T12:32:48;14.40;1.00
15991;DHT22;8100;50.994;4.538;2023-03-21T12:35:52;14.30;1.00
15991;DHT22;8100;50.994;4.538;2023-03-21T12:38:43;14.10;1.00
15991;DHT22;8100;50.994;4.538;2023-03-21T12:41:38;14.20;1.00
15991;DHT22;8100;50.994;4.538;2023-03-21T12:44:30;14.20;1.00
15991;DHT22;8100;50.994;4.538;2023-03-21T12:47:23;14.30;1.00
15991;DHT22;8100;50.994;4.538;2023-03-21T12:50:16;14.50;1.00
15991;DHT22;8100;50.994;4.538;2023-03-21T12:53:24;14.20;1.00
15991;DHT22;8100;50.994;4.538;2023-03-21T12:56:16;14.40;1.00
15991;DHT22;8100;50.994;4.538;2023-03-21T12:59:12;14.60;1.00
15991;DHT22;8100;50.994;4.538;2023-03-21T13:02:13;14.60;1.00
15991;DHT22;8100;50.994;4.538;2023-03-21T13:05:07;14.50;1.00
15991;DHT22;8100;50.994;4.538;2023-03-21T13:08:03;14.60;1.00
15991;DHT22;8100;50.994;4.538;2023-03-21T13:10:51;14.80;1.00
15991;DHT22;8100;50.994;4.538;2023-03-21T13:13:44;14.90;1.00
15991;DHT22;8100;50.994;4.538;2023-03-21T13:16:34;14.60;1.00
15991;DHT22;8100;50.994;4.538;2023-03-21T13:19:28;14.70;1.00
15991;DHT22;8100;50.994;4.538;2023-03-21T13:22:22;14.80;1.00
15991;DHT22;8100;50.994;4.538;2023-03-21T13:25:17;15.00;1.00
15991;DHT22;8100;50.994;4.538;2023-03-21T13:28:05;14.80;1.00
15991;DHT22;8100;50.994;4.538;2023-03-21T13:30:52;14.80;1.00
15991;DHT22;8100;50.994;4.538;2023-03-21T13:33:44;14.70;1.00
15991;DHT22;8100;50.994;4.538;2023-03-21T13:36:34;14.70;1.00
15991;DHT22;8100;50.994;4.538;2023-03-21T13:39:26;14.60;1.00
15991;DHT22;8100;50.994;4.538;2023-03-21T13:42:20;14.50;1.00
15991;DHT22;8100;50.994;4.538;2023-03-21T13:45:10;14.50;1.00
15991;DHT22;8100;50.994;4.538;2023-03-21T13:47:58;14.60;1.00
15991;DHT22;8100;50.994;4.538;2023-03-21T13:50:51;14.60;1.00
15991;DHT22;8100;50.994;4.538;2023-03-21T13:53:40;14.30;1.00
15991;DHT22;8100;50.994;4.538;2023-03-21T13:56:47;14.30;1.00
15991;DHT22;8100;50.994;4.538;2023-03-21T13:59:39;14.40;1.00
15991;DHT22;8100;50.994;4.538;2023-03-21T14:02:28;14.50;1.00
15991;DHT22;8100;50.994;4.538;2023-03-21T14:05:19;14.50;1.00
15991;DHT22;8100;50.994;4.538;2023-03-21T14:08:09;14.60;1.00
15991;DHT22;8100;50.994;4.538;2023-03-21T14:11:05;14.80;1.00
15991;DHT22;8100;50.994;4.538;2023-03-21T14:13:54;14.80;1.00
15991;DHT22;8100;50.994;4.538;2023-03-21T14:16:43;14.80;1.00
15991;DHT22;8100;50.994;4.538;2023-03-21T14:19:31;14.70;1.00
15991;DHT22;8100;50.994;4.538;2023-03-21T14:22:19;14.50;1.00
15991;DHT22;8100;50.994;4.538;2023-03-21T14:25:10;14.40;1.00
15991;DHT22;8100;50.994;4.538;2023-03-21T14:28:00;14.30;1.00
15991;DHT22;8100;50.994;4.538;2023-03-21T14:30:53;14.20;1.00
15991;DHT22;8100;50.994;4.538;2023-03-21T14:33:41;14.30;1.00
15991;DHT22;8100;50.994;4.538;2023-03-21T14:36:37;14.20;1.00
15991;DHT22;8100;50.994;4.538;2023-03-21T14:39:27;14.20;1.00
15991;DHT22;8100;50.994;4.538;2023-03-21T14:42:14;14.10;1.00
15991;DHT22;8100;50.994;4.538;2023-03-21T14:45:14;14.10;1.00
15991;DHT22;8100;50.994;4.538;2023-03-21T14:48:06;14.00;1.00
15991;DHT22;8100;50.994;4.538;2023-03-21T14:50:54;14.00;1.00
15991;DHT22;8100;50.994;4.538;2023-03-21T14:53:43;14.00;1.00
15991;DHT22;8100;50.994;4.538;2023-03-21T14:56:33;13.90;1.00
15991;DHT22;8100;50.994;4.538;2023-03-21T14:59:24;14.10;1.00
15991;DHT22;8100;50.994;4.538;2023-03-21T15:02:16;14.10;1.00
15991;DHT22;8100;50.994;4.538;2023-03-21T15:05:14;14.10;1.00
15991;DHT22;8100;50.994;4.538;2023-03-21T15:08:06;14.00;1.00
15991;DHT22;8100;50.994;4.538;2023-03-21T15:10:55;13.90;1.00
15991;DHT22;8100;50.994;4.538;2023-03-21T15:13:45;13.80;1.00
15991;DHT22;8100;50.994;4.538;2023-03-21T15:16:35;13.70;1.00
15991;DHT22;8100;50.994;4.538;2023-03-21T15:19:28;13.80;1.00
15991;DHT22;8100;50.994;4.538;2023-03-21T15:22:21;13.80;1.00
15991;DHT22;8100;50.994;4.538;2023-03-21T15:25:13;13.80;1.00
15991;DHT22;8100;50.994;4.538;2023-03-21T15:28:02;13.70;1.00
15991;DHT22;8100;50.994;4.538;2023-03-21T15:30:51;13.90;1.00
15991;DHT22;8100;50.994;4.538;2023-03-21T15:33:39;14.00;1.00
15991;DHT22;8100;50.994;4.538;2023-03-21T15:36:27;13.70;1.00
15991;DHT22;8100;50.994;4.538;2023-03-21T15:39:19;13.70;1.00
15991;DHT22;8100;50.994;4.538;2023-03-21T15:42:26;13.50;1.00
15991;DHT22;8100;50.994;4.538;2023-03-21T15:45:18;13.50;1.00
15991;DHT22;8100;50.994;4.538;2023-03-21T15:48:08;13.50;1.00
15991;DHT22;8100;50.994;4.538;2023-03-21T15:51:02;13.50;1.00
15991;DHT22;8100;50.994;4.538;2023-03-21T15:53:51;13.40;1.00
15991;DHT22;8100;50.994;4.538;2023-03-21T15:56:41;13.40;1.00
15991;DHT22;8100;50.994;4.538;2023-03-21T15:59:33;13.30;1.00
15991;DHT22;8100;50.994;4.538;2023-03-21T16:02:23;13.20;13.20
15991;DHT22;8100;50.994;4.538;2023-03-21T16:05:22;13.10;99.90
15991;DHT22;8100;50.994;4.538;2023-03-21T16:08:18;12.90;99.90
15991;DHT22;8100;50.994;4.538;2023-03-21T16:11:07;12.60;99.90
15991;DHT22;8100;50.994;4.538;2023-03-21T16:13:56;12.60;99.90
15991;DHT22;8100;50.994;4.538;2023-03-21T16:16:44;12.50;99.90
15991;DHT22;8100;50.994;4.538;2023-03-21T16:19:32;12.50;99.90
15991;DHT22;8100;50.994;4.538;2023-03-21T16:22:19;12.60;99.90
15991;DHT22;8100;50.994;4.538;2023-03-21T16:25:07;12.60;99.90
15991;DHT22;8100;50.994;4.538;2023-03-21T16:27:55;12.60;99.90
15991;DHT22;8100;50.994;4.538;2023-03-21T16:30:44;12.70;99.90
15991;DHT22;8100;50.994;4.538;2023-03-21T16:33:31;12.70;99.90
15991;DHT22;8100;50.994;4.538;2023-03-21T16:36:20;12.70;99.90
15991;DHT22;8100;50.994;4.538;2023-03-21T16:39:17;12.90;99.90
15991;DHT22;8100;50.994;4.538;2023-03-21T16:42:04;14.00;99.90
15991;DHT22;8100;50.994;4.538;2023-03-21T16:44:52;14.20;99.90
15991;DHT22;8100;50.994;4.538;2023-03-21T16:47:41;14.10;99.90
15991;DHT22;8100;50.994;4.538;2023-03-21T16:50:31;14.50;99.90
15991;DHT22;8100;50.994;4.538;2023-03-21T16:53:19;14.00;99.90
15991;DHT22;8100;50.994;4.538;2023-03-21T16:56:11;14.10;99.90
15991;DHT22;8100;50.994;4.538;2023-03-21T16:59:00;14.00;99.90
15991;DHT22;8100;50.994;4.538;2023-03-21T17:01:47;13.60;99.90
15991;DHT22;8100;50.994;4.538;2023-03-21T17:04:36;13.40;99.90
15991;DHT22;8100;50.994;4.538;2023-03-21T17:07:23;13.20;99.90
15991;DHT22;8100;50.994;4.538;2023-03-21T17:10:17;13.10;99.90
15991;DHT22;8100;50.994;4.538;2023-03-21T17:13:05;13.00;99.90
15991;DHT22;8100;50.994;4.538;2023-03-21T17:15:53;12.90;99.90
15991;DHT22;8100;50.994;4.538;2023-03-21T17:18:40;12.90;99.90
15991;DHT22;8100;50.994;4.538;2023-03-21T17:21:29;12.80;99.90
15991;DHT22;8100;50.994;4.538;2023-03-21T17:24:17;12.80;99.90
15991;DHT22;8100;50.994;4.538;2023-03-21T17:27:07;12.80;99.90
15991;DHT22;8100;50.994;4.538;2023-03-21T17:29:54;12.80;99.90
15991;DHT22;8100;50.994;4.538;2023-03-21T17:32:43;12.80;99.90
15991;DHT22;8100;50.994;4.538;2023-03-21T17:35:30;12.80;99.90
15991;DHT22;8100;50.994;4.538;2023-03-21T17:38:19;12.80;99.90
15991;DHT22;8100;50.994;4.538;2023-03-21T17:41:10;12.80;99.90
15991;DHT22;8100;50.994;4.538;2023-03-21T17:43:57;12.80;99.90
15991;DHT22;8100;50.994;4.538;2023-03-21T17:46:44;12.70;99.90
15991;DHT22;8100;50.994;4.538;2023-03-21T17:49:32;12.70;99.90
15991;DHT22;8100;50.994;4.538;2023-03-21T17:52:19;12.70;99.90
15991;DHT22;8100;50.994;4.538;2023-03-21T17:55:08;12.60;99.90
15991;DHT22;8100;50.994;4.538;2023-03-21T17:57:55;12.50;99.90
15991;DHT22;8100;50.994;4.538;2023-03-21T18:00:42;12.40;99.90
15991;DHT22;8100;50.994;4.538;2023-03-21T18:03:31;12.50;99.90
15991;DHT22;8100;50.994;4.538;2023-03-21T18:06:20;12.50;99.90
15991;DHT22;8100;50.994;4.538;2023-03-21T18:09:09;12.50;99.90
15991;DHT22;8100;50.994;4.538;2023-03-21T18:11:58;12.50;99.90
15991;DHT22;8100;50.994;4.538;2023-03-21T18:14:45;12.50;99.90
15991;DHT22;8100;50.994;4.538;2023-03-21T18:17:32;12.50;99.90
15991;DHT22;8100;50.994;4.538;2023-03-21T18:20:22;12.50;99.90
15991;DHT22;8100;50.994;4.538;2023-03-21T18:23:12;12.50;99.90
15991;DHT22;8100;50.994;4.538;2023-03-21T18:25:59;12.40;99.90
15991;DHT22;8100;50.994;4.538;2023-03-21T18:28:48;12.40;99.90
15991;DHT22;8100;50.994;4.538;2023-03-21T18:31:35;12.40;99.90
15991;DHT22;8100;50.994;4.538;2023-03-21T18:34:22;12.30;99.90
15991;DHT22;8100;50.994;4.538;2023-03-21T18:37:10;12.30;99.90